Home   Weather   Netherlands   Enschede   Past weeks
Flag for Netherlands

Past Weather in Enschede, Netherlands — Yesterday and Last 2 Weeks

Currently: 34 °F. Chilly. (Weather station: Deelen, Netherlands). See more current weather

Past Weather in Enschede — Graph

°F

Enschede Temperature Yesterday

Maximum temperature yesterday: 61 °F (at 12:25 pm)
Minimum temperature yesterday: 46 °F (at 7:55 am)
Average temperature yesterday: 54 °F

High & Low Weather Summary for the Past Weeks

 TemperatureHumidityPressure
High64 °F (Feb 23, 3:55 pm)100% (Feb 12, 4:25 am)30.72 "Hg (Feb 12, 4:25 am)
Low12 °F (Feb 12, 12:25 am)38% (Feb 14, 4:55 pm)29.65 "Hg (Feb 18, 5:25 pm)
Average44 °F77%30.20 "Hg
* Reported Feb 11 9:25 pm — Feb 26 9:25 pm, Enschede. Weather by CustomWeather, © 2021

Note: Actual official high and low records may vary slightly from our data, if they occured in-between our weather recording intervals... More about our weather records

Enschede Weather History for the Previous 24 Hours

Scroll right to see more
 ConditionsComfort  
Time TempWeatherWind HumidityBarometerVisibility
9:25 pm
Fri, Feb 26
34 °FPassing clouds.1 mph93%30.63 "HgN/A
8:55 pm34 °FChilly.1 mph100%30.60 "HgN/A
8:25 pm36 °FChilly.2 mph93%30.60 "HgN/A
7:55 pm39 °FChilly.2 mph87%30.60 "HgN/A
7:25 pm41 °FQuite cool.5 mph81%30.60 "HgN/A
6:55 pm43 °FPassing clouds.6 mph76%30.60 "HgN/A
6:25 pm43 °FQuite cool.6 mph76%30.57 "HgN/A
5:55 pm46 °FCool.9 mph66%30.57 "HgN/A
5:25 pm46 °FCool.9 mph66%30.57 "HgN/A
4:55 pm48 °FScattered clouds.14 mph62%30.57 "HgN/A
4:25 pm48 °FMostly cloudy.10 mph66%30.54 "HgN/A
3:55 pm50 °FPassing clouds.13 mph58%30.54 "HgN/A
3:25 pm50 °FOvercast.13 mph54%30.54 "HgN/A
2:55 pm50 °FBroken clouds.13 mph54%30.54 "HgN/A
2:25 pm52 °FCool.13 mph54%30.54 "HgN/A
1:55 pm48 °FBroken clouds.13 mph58%30.54 "HgN/A
1:25 pm48 °FMostly cloudy.9 mph62%30.54 "HgN/A
12:55 pm52 °FBroken clouds.12 mph58%30.54 "HgN/A
12:25 pm50 °FScattered clouds.9 mph58%30.54 "HgN/A
11:55 am50 °FPassing clouds.10 mph67%30.54 "HgN/A
11:25 am48 °FCool.10 mph71%30.54 "HgN/A
10:55 am48 °FCool.9 mph71%30.54 "HgN/A
10:25 am46 °FCool.8 mph82%30.54 "HgN/A
9:55 am45 °FQuite cool.7 mph87%30.51 "HgN/A
9:25 am43 °FQuite cool.7 mph93%30.51 "HgN/A
8:55 am41 °FFog.2 mph93%30.51 "Hg5 mi
8:25 am36 °FFog.No wind100%30.51 "Hg4 mi
7:55 am37 °FChilly.No wind93%30.48 "HgN/A
7:25 am41 °FPassing clouds.2 mph93%30.48 "HgN/A
6:55 am41 °FOvercast.5 mph93%30.48 "HgN/A
6:25 am43 °FMostly cloudy.3 mph87%30.48 "HgN/A
5:55 am43 °FOvercast.3 mph93%30.45 "HgN/A
5:25 am43 °FOvercast.2 mph93%30.45 "HgN/A
4:55 am43 °FMostly cloudy.3 mph93%30.45 "HgN/A
4:25 am45 °FOvercast.3 mph87%30.45 "HgN/A
3:55 am45 °FDrizzle. Overcast.2 mph87%30.45 "HgN/A
3:25 am43 °FOvercast.3 mph93%30.45 "HgN/A
2:55 am45 °FOvercast.2 mph81%30.45 "HgN/A
2:25 am45 °FMostly cloudy.6 mph81%30.42 "HgN/A
1:55 am45 °FMostly cloudy.6 mph81%30.45 "HgN/A
1:25 am45 °FOvercast.6 mph87%30.45 "HgN/A
12:55 am46 °FMostly cloudy.5 mph82%30.45 "HgN/A
12:25 am46 °FOvercast.7 mph82%30.42 "HgN/A
11:55 pm
Thu, Feb 25
46 °FPassing clouds.8 mph82%30.42 "HgN/A
11:25 pm46 °FOvercast.6 mph82%30.42 "HgN/A
10:55 pm46 °FOvercast.7 mph87%30.39 "HgN/A
10:25 pm48 °FOvercast.3 mph76%30.39 "HgN/A
Weather by CustomWeather, © 2021

See weather overview